sensor_id;sensor_type;location;lat;lon;timestamp;temperature;humidity
6662;DHT22;3367;48.714;8.994;2023-05-07T00:01:06;12.20;99.90
6662;DHT22;3367;48.714;8.994;2023-05-07T00:03:33;12.20;99.90
6662;DHT22;3367;48.714;8.994;2023-05-07T00:06:00;12.20;99.90
6662;DHT22;3367;48.714;8.994;2023-05-07T00:08:27;12.20;99.90
6662;DHT22;3367;48.714;8.994;2023-05-07T00:10:53;12.20;99.90
6662;DHT22;3367;48.714;8.994;2023-05-07T00:13:20;12.30;99.90
6662;DHT22;3367;48.714;8.994;2023-05-07T00:15:47;12.20;99.90
6662;DHT22;3367;48.714;8.994;2023-05-07T00:18:15;12.20;99.90
6662;DHT22;3367;48.714;8.994;2023-05-07T00:20:41;12.20;99.90
6662;DHT22;3367;48.714;8.994;2023-05-07T00:23:08;12.20;99.90
6662;DHT22;3367;48.714;8.994;2023-05-07T00:25:35;12.20;99.90
6662;DHT22;3367;48.714;8.994;2023-05-07T00:28:02;12.20;99.90
6662;DHT22;3367;48.714;8.994;2023-05-07T00:30:29;12.20;99.90
6662;DHT22;3367;48.714;8.994;2023-05-07T00:32:56;12.20;99.90
6662;DHT22;3367;48.714;8.994;2023-05-07T00:35:24;12.10;99.90
6662;DHT22;3367;48.714;8.994;2023-05-07T00:37:51;12.10;99.90
6662;DHT22;3367;48.714;8.994;2023-05-07T00:40:18;12.10;99.90
6662;DHT22;3367;48.714;8.994;2023-05-07T00:42:44;12.10;99.90
6662;DHT22;3367;48.714;8.994;2023-05-07T00:45:12;12.10;99.90
6662;DHT22;3367;48.714;8.994;2023-05-07T00:47:39;12.10;99.90
6662;DHT22;3367;48.714;8.994;2023-05-07T00:50:08;12.00;99.90
6662;DHT22;3367;48.714;8.994;2023-05-07T00:52:37;12.00;99.90
6662;DHT22;3367;48.714;8.994;2023-05-07T00:55:05;12.00;99.90
6662;DHT22;3367;48.714;8.994;2023-05-07T00:57:34;12.00;99.90
6662;DHT22;3367;48.714;8.994;2023-05-07T01:00:03;11.90;99.90
6662;DHT22;3367;48.714;8.994;2023-05-07T01:02:30;11.90;1.00
6662;DHT22;3367;48.714;8.994;2023-05-07T01:04:57;11.90;1.00
6662;DHT22;3367;48.714;8.994;2023-05-07T01:07:24;11.90;1.00
6662;DHT22;3367;48.714;8.994;2023-05-07T01:09:52;11.90;1.00
6662;DHT22;3367;48.714;8.994;2023-05-07T01:12:19;11.90;1.00
6662;DHT22;3367;48.714;8.994;2023-05-07T01:14:46;11.90;1.00
6662;DHT22;3367;48.714;8.994;2023-05-07T01:17:15;11.90;1.00
6662;DHT22;3367;48.714;8.994;2023-05-07T01:19:42;12.00;1.00
6662;DHT22;3367;48.714;8.994;2023-05-07T01:22:10;11.90;1.00
6662;DHT22;3367;48.714;8.994;2023-05-07T01:24:39;11.90;1.00
6662;DHT22;3367;48.714;8.994;2023-05-07T01:27:05;11.80;1.00
6662;DHT22;3367;48.714;8.994;2023-05-07T01:29:32;11.80;1.00
6662;DHT22;3367;48.714;8.994;2023-05-07T01:32:00;11.80;1.00
6662;DHT22;3367;48.714;8.994;2023-05-07T01:34:29;11.80;1.00
6662;DHT22;3367;48.714;8.994;2023-05-07T01:36:56;11.80;1.00
6662;DHT22;3367;48.714;8.994;2023-05-07T01:39:25;11.80;1.00
6662;DHT22;3367;48.714;8.994;2023-05-07T01:41:53;11.80;1.00
6662;DHT22;3367;48.714;8.994;2023-05-07T01:44:21;11.80;93.40
6662;DHT22;3367;48.714;8.994;2023-05-07T01:46:48;11.70;99.90
6662;DHT22;3367;48.714;8.994;2023-05-07T01:49:15;11.70;99.90
6662;DHT22;3367;48.714;8.994;2023-05-07T01:51:43;11.70;99.90
6662;DHT22;3367;48.714;8.994;2023-05-07T01:54:10;11.70;99.90
6662;DHT22;3367;48.714;8.994;2023-05-07T01:56:36;11.70;99.90
6662;DHT22;3367;48.714;8.994;2023-05-07T01:59:05;11.70;99.90
6662;DHT22;3367;48.714;8.994;2023-05-07T02:01:31;11.70;99.90
6662;DHT22;3367;48.714;8.994;2023-05-07T02:03:58;11.80;99.90
6662;DHT22;3367;48.714;8.994;2023-05-07T02:06:25;11.70;99.90
6662;DHT22;3367;48.714;8.994;2023-05-07T02:08:51;11.80;99.90
6662;DHT22;3367;48.714;8.994;2023-05-07T02:11:18;11.70;99.90
6662;DHT22;3367;48.714;8.994;2023-05-07T02:13:45;11.70;1.00
6662;DHT22;3367;48.714;8.994;2023-05-07T02:16:13;11.70;99.90
6662;DHT22;3367;48.714;8.994;2023-05-07T02:18:40;11.70;99.90
6662;DHT22;3367;48.714;8.994;2023-05-07T02:21:06;11.70;99.90
6662;DHT22;3367;48.714;8.994;2023-05-07T02:23:33;11.70;99.90
6662;DHT22;3367;48.714;8.994;2023-05-07T02:26:00;11.60;99.90
6662;DHT22;3367;48.714;8.994;2023-05-07T02:28:26;11.60;1.00
6662;DHT22;3367;48.714;8.994;2023-05-07T02:30:53;11.40;1.00
6662;DHT22;3367;48.714;8.994;2023-05-07T02:33:21;11.50;1.00
6662;DHT22;3367;48.714;8.994;2023-05-07T02:35:48;11.50;1.00
6662;DHT22;3367;48.714;8.994;2023-05-07T02:38:14;11.50;1.00
6662;DHT22;3367;48.714;8.994;2023-05-07T02:40:41;11.40;1.00
6662;DHT22;3367;48.714;8.994;2023-05-07T02:43:08;11.40;17.40
6662;DHT22;3367;48.714;8.994;2023-05-07T02:45:35;11.40;11.30
6662;DHT22;3367;48.714;8.994;2023-05-07T02:48:03;11.30;26.50
6662;DHT22;3367;48.714;8.994;2023-05-07T02:50:32;11.30;99.90
6662;DHT22;3367;48.714;8.994;2023-05-07T02:53:00;11.30;62.40
6662;DHT22;3367;48.714;8.994;2023-05-07T02:55:26;11.30;1.00
6662;DHT22;3367;48.714;8.994;2023-05-07T02:57:53;11.30;1.00
6662;DHT22;3367;48.714;8.994;2023-05-07T03:00:20;11.30;1.00
6662;DHT22;3367;48.714;8.994;2023-05-07T03:02:47;11.20;1.00
6662;DHT22;3367;48.714;8.994;2023-05-07T03:05:14;11.10;44.80
6662;DHT22;3367;48.714;8.994;2023-05-07T03:07:42;11.10;99.90
6662;DHT22;3367;48.714;8.994;2023-05-07T03:10:10;11.00;99.90
6662;DHT22;3367;48.714;8.994;2023-05-07T03:12:37;11.00;99.90
6662;DHT22;3367;48.714;8.994;2023-05-07T03:15:05;10.90;99.90
6662;DHT22;3367;48.714;8.994;2023-05-07T03:17:31;10.90;1.00
6662;DHT22;3367;48.714;8.994;2023-05-07T03:19:58;10.90;1.00
6662;DHT22;3367;48.714;8.994;2023-05-07T03:22:25;10.80;1.00
6662;DHT22;3367;48.714;8.994;2023-05-07T03:24:53;10.80;1.00
6662;DHT22;3367;48.714;8.994;2023-05-07T03:27:19;10.80;1.00
6662;DHT22;3367;48.714;8.994;2023-05-07T03:29:46;10.80;1.00
6662;DHT22;3367;48.714;8.994;2023-05-07T03:32:13;10.80;99.90
6662;DHT22;3367;48.714;8.994;2023-05-07T03:34:40;10.80;99.90
6662;DHT22;3367;48.714;8.994;2023-05-07T03:37:06;10.80;99.90
6662;DHT22;3367;48.714;8.994;2023-05-07T03:39:33;10.80;99.90
6662;DHT22;3367;48.714;8.994;2023-05-07T03:42:01;10.80;99.90
6662;DHT22;3367;48.714;8.994;2023-05-07T03:44:28;10.70;1.00
6662;DHT22;3367;48.714;8.994;2023-05-07T03:46:55;10.70;1.00
6662;DHT22;3367;48.714;8.994;2023-05-07T03:49:21;10.60;1.00
6662;DHT22;3367;48.714;8.994;2023-05-07T03:51:48;10.60;1.00
6662;DHT22;3367;48.714;8.994;2023-05-07T03:54:15;10.50;1.00
6662;DHT22;3367;48.714;8.994;2023-05-07T03:56:41;10.50;1.00
6662;DHT22;3367;48.714;8.994;2023-05-07T03:59:09;10.50;13.10
6662;DHT22;3367;48.714;8.994;2023-05-07T04:01:36;10.50;53.20
6662;DHT22;3367;48.714;8.994;2023-05-07T04:04:03;10.50;1.00
6662;DHT22;3367;48.714;8.994;2023-05-07T04:06:30;10.50;1.00
6662;DHT22;3367;48.714;8.994;2023-05-07T04:08:57;10.60;1.00
6662;DHT22;3367;48.714;8.994;2023-05-07T04:11:24;10.60;1.00
6662;DHT22;3367;48.714;8.994;2023-05-07T04:13:50;10.60;1.00
6662;DHT22;3367;48.714;8.994;2023-05-07T04:16:18;10.60;1.00
6662;DHT22;3367;48.714;8.994;2023-05-07T04:18:45;10.60;1.00
6662;DHT22;3367;48.714;8.994;2023-05-07T04:21:15;10.60;1.00
6662;DHT22;3367;48.714;8.994;2023-05-07T04:23:42;10.60;1.00
6662;DHT22;3367;48.714;8.994;2023-05-07T04:26:09;10.60;1.00
6662;DHT22;3367;48.714;8.994;2023-05-07T04:28:36;10.60;1.00
6662;DHT22;3367;48.714;8.994;2023-05-07T04:31:03;10.70;1.00
6662;DHT22;3367;48.714;8.994;2023-05-07T04:33:31;10.80;99.90
6662;DHT22;3367;48.714;8.994;2023-05-07T04:35:58;10.80;99.90
6662;DHT22;3367;48.714;8.994;2023-05-07T04:38:28;10.80;62.60
6662;DHT22;3367;48.714;8.994;2023-05-07T04:40:55;10.80;99.90
6662;DHT22;3367;48.714;8.994;2023-05-07T04:43:21;10.80;99.90
6662;DHT22;3367;48.714;8.994;2023-05-07T04:45:50;10.80;51.30
6662;DHT22;3367;48.714;8.994;2023-05-07T04:48:16;10.90;36.30
6662;DHT22;3367;48.714;8.994;2023-05-07T04:50:47;10.90;9.70
6662;DHT22;3367;48.714;8.994;2023-05-07T04:53:14;10.90;99.90
6662;DHT22;3367;48.714;8.994;2023-05-07T04:55:40;10.90;99.90
6662;DHT22;3367;48.714;8.994;2023-05-07T04:58:08;10.90;99.90
6662;DHT22;3367;48.714;8.994;2023-05-07T05:00:35;11.00;99.90
6662;DHT22;3367;48.714;8.994;2023-05-07T05:03:02;11.00;99.90
6662;DHT22;3367;48.714;8.994;2023-05-07T05:05:28;11.10;99.90
6662;DHT22;3367;48.714;8.994;2023-05-07T05:07:56;11.20;99.90
6662;DHT22;3367;48.714;8.994;2023-05-07T05:10:23;11.20;1.00
6662;DHT22;3367;48.714;8.994;2023-05-07T05:12:50;11.30;1.00
6662;DHT22;3367;48.714;8.994;2023-05-07T05:15:17;11.40;1.00
6662;DHT22;3367;48.714;8.994;2023-05-07T05:17:43;11.50;1.00
6662;DHT22;3367;48.714;8.994;2023-05-07T05:20:10;11.70;1.00
6662;DHT22;3367;48.714;8.994;2023-05-07T05:22:37;12.00;1.00
6662;DHT22;3367;48.714;8.994;2023-05-07T05:25:06;12.20;1.00
6662;DHT22;3367;48.714;8.994;2023-05-07T05:27:33;12.40;99.90
6662;DHT22;3367;48.714;8.994;2023-05-07T05:30:00;12.60;99.90
6662;DHT22;3367;48.714;8.994;2023-05-07T05:32:27;12.80;18.20
6662;DHT22;3367;48.714;8.994;2023-05-07T05:34:54;13.00;1.00
6662;DHT22;3367;48.714;8.994;2023-05-07T05:37:21;13.50;1.00
6662;DHT22;3367;48.714;8.994;2023-05-07T05:39:47;14.20;99.90
6662;DHT22;3367;48.714;8.994;2023-05-07T05:42:15;14.30;99.90
6662;DHT22;3367;48.714;8.994;2023-05-07T05:44:42;14.30;99.90
6662;DHT22;3367;48.714;8.994;2023-05-07T05:47:08;14.40;92.60
6662;DHT22;3367;48.714;8.994;2023-05-07T05:49:35;14.80;66.10
6662;DHT22;3367;48.714;8.994;2023-05-07T05:52:02;15.50;1.00
6662;DHT22;3367;48.714;8.994;2023-05-07T05:54:29;16.00;1.00
6662;DHT22;3367;48.714;8.994;2023-05-07T05:56:56;16.10;83.60
6662;DHT22;3367;48.714;8.994;2023-05-07T05:59:24;15.80;64.80
6662;DHT22;3367;48.714;8.994;2023-05-07T06:01:51;15.60;92.40
6662;DHT22;3367;48.714;8.994;2023-05-07T06:04:17;15.60;99.90
6662;DHT22;3367;48.714;8.994;2023-05-07T06:06:44;15.80;99.90
6662;DHT22;3367;48.714;8.994;2023-05-07T06:09:11;16.20;99.90
6662;DHT22;3367;48.714;8.994;2023-05-07T06:11:37;16.70;75.20
6662;DHT22;3367;48.714;8.994;2023-05-07T06:14:06;16.90;1.00
6662;DHT22;3367;48.714;8.994;2023-05-07T06:16:34;17.30;1.00
6662;DHT22;3367;48.714;8.994;2023-05-07T06:19:01;17.60;1.00
6662;DHT22;3367;48.714;8.994;2023-05-07T06:21:28;17.70;1.00
6662;DHT22;3367;48.714;8.994;2023-05-07T06:23:55;17.90;1.00
6662;DHT22;3367;48.714;8.994;2023-05-07T06:26:22;18.00;1.00
6662;DHT22;3367;48.714;8.994;2023-05-07T06:28:49;18.00;1.00
6662;DHT22;3367;48.714;8.994;2023-05-07T06:31:17;17.80;1.00
6662;DHT22;3367;48.714;8.994;2023-05-07T06:33:47;17.70;1.00
6662;DHT22;3367;48.714;8.994;2023-05-07T06:36:14;17.60;1.00
6662;DHT22;3367;48.714;8.994;2023-05-07T06:38:41;17.80;1.00
6662;DHT22;3367;48.714;8.994;2023-05-07T06:41:08;18.00;1.00
6662;DHT22;3367;48.714;8.994;2023-05-07T06:43:35;18.30;1.00
6662;DHT22;3367;48.714;8.994;2023-05-07T06:46:02;18.70;1.00
6662;DHT22;3367;48.714;8.994;2023-05-07T06:48:29;18.90;1.00
6662;DHT22;3367;48.714;8.994;2023-05-07T06:50:57;19.30;1.00
6662;DHT22;3367;48.714;8.994;2023-05-07T06:53:24;19.60;1.00
6662;DHT22;3367;48.714;8.994;2023-05-07T06:55:51;20.40;1.00
6662;DHT22;3367;48.714;8.994;2023-05-07T06:58:18;20.80;1.00
6662;DHT22;3367;48.714;8.994;2023-05-07T07:00:45;21.30;1.00
6662;DHT22;3367;48.714;8.994;2023-05-07T07:03:11;21.30;1.00
6662;DHT22;3367;48.714;8.994;2023-05-07T07:05:39;21.30;1.00
6662;DHT22;3367;48.714;8.994;2023-05-07T07:08:07;21.60;1.00
6662;DHT22;3367;48.714;8.994;2023-05-07T07:10:34;21.80;1.00
6662;DHT22;3367;48.714;8.994;2023-05-07T07:13:01;22.20;1.00
6662;DHT22;3367;48.714;8.994;2023-05-07T07:15:28;22.50;1.00
6662;DHT22;3367;48.714;8.994;2023-05-07T07:17:54;22.50;1.00
6662;DHT22;3367;48.714;8.994;2023-05-07T07:20:21;22.70;1.00
6662;DHT22;3367;48.714;8.994;2023-05-07T07:22:48;22.70;1.00
6662;DHT22;3367;48.714;8.994;2023-05-07T07:25:16;22.30;1.00
6662;DHT22;3367;48.714;8.994;2023-05-07T07:27:43;22.00;1.00
6662;DHT22;3367;48.714;8.994;2023-05-07T07:30:10;21.70;1.00
6662;DHT22;3367;48.714;8.994;2023-05-07T07:32:37;21.70;1.00
6662;DHT22;3367;48.714;8.994;2023-05-07T07:35:05;21.80;1.00
6662;DHT22;3367;48.714;8.994;2023-05-07T07:37:32;22.10;1.00
6662;DHT22;3367;48.714;8.994;2023-05-07T07:39:59;22.30;1.00
6662;DHT22;3367;48.714;8.994;2023-05-07T07:42:27;22.50;1.00
6662;DHT22;3367;48.714;8.994;2023-05-07T07:44:54;22.80;1.00
6662;DHT22;3367;48.714;8.994;2023-05-07T07:47:22;23.00;1.00
6662;DHT22;3367;48.714;8.994;2023-05-07T07:49:49;22.70;1.00
6662;DHT22;3367;48.714;8.994;2023-05-07T07:52:16;22.70;1.00
6662;DHT22;3367;48.714;8.994;2023-05-07T07:54:42;22.70;1.00
6662;DHT22;3367;48.714;8.994;2023-05-07T07:57:09;22.90;1.00
6662;DHT22;3367;48.714;8.994;2023-05-07T07:59:37;22.60;1.00
6662;DHT22;3367;48.714;8.994;2023-05-07T08:02:05;22.30;1.00
6662;DHT22;3367;48.714;8.994;2023-05-07T08:04:31;22.60;1.00
6662;DHT22;3367;48.714;8.994;2023-05-07T08:06:58;22.40;1.00
6662;DHT22;3367;48.714;8.994;2023-05-07T08:09:25;22.50;1.00
6662;DHT22;3367;48.714;8.994;2023-05-07T08:11:52;22.50;1.00
6662;DHT22;3367;48.714;8.994;2023-05-07T08:14:19;22.20;1.00
6662;DHT22;3367;48.714;8.994;2023-05-07T08:16:47;22.40;1.00
6662;DHT22;3367;48.714;8.994;2023-05-07T08:19:14;22.40;1.00
6662;DHT22;3367;48.714;8.994;2023-05-07T08:21:40;22.30;1.00
6662;DHT22;3367;48.714;8.994;2023-05-07T08:24:07;22.20;1.00
6662;DHT22;3367;48.714;8.994;2023-05-07T08:26:34;22.20;1.00
6662;DHT22;3367;48.714;8.994;2023-05-07T08:29:01;22.00;1.00
6662;DHT22;3367;48.714;8.994;2023-05-07T08:31:28;22.20;1.00
6662;DHT22;3367;48.714;8.994;2023-05-07T08:33:56;22.00;1.00
6662;DHT22;3367;48.714;8.994;2023-05-07T08:36:23;22.10;1.00
6662;DHT22;3367;48.714;8.994;2023-05-07T08:38:51;22.00;1.00
6662;DHT22;3367;48.714;8.994;2023-05-07T08:41:18;22.20;1.00
6662;DHT22;3367;48.714;8.994;2023-05-07T08:43:47;22.30;1.00
6662;DHT22;3367;48.714;8.994;2023-05-07T08:46:18;22.30;1.00
6662;DHT22;3367;48.714;8.994;2023-05-07T08:48:47;22.20;1.00
6662;DHT22;3367;48.714;8.994;2023-05-07T08:51:17;22.30;1.00
6662;DHT22;3367;48.714;8.994;2023-05-07T08:53:45;22.50;1.00
6662;DHT22;3367;48.714;8.994;2023-05-07T08:56:14;22.40;1.00
6662;DHT22;3367;48.714;8.994;2023-05-07T08:58:41;22.20;1.00
6662;DHT22;3367;48.714;8.994;2023-05-07T09:01:10;22.30;1.00
6662;DHT22;3367;48.714;8.994;2023-05-07T09:03:39;22.10;1.00
6662;DHT22;3367;48.714;8.994;2023-05-07T09:06:06;22.10;1.00
6662;DHT22;3367;48.714;8.994;2023-05-07T09:08:34;21.90;1.00
6662;DHT22;3367;48.714;8.994;2023-05-07T09:11:01;22.10;1.00
6662;DHT22;3367;48.714;8.994;2023-05-07T09:13:28;22.20;1.00
6662;DHT22;3367;48.714;8.994;2023-05-07T09:15:55;22.30;1.00
6662;DHT22;3367;48.714;8.994;2023-05-07T09:18:23;22.10;1.00
6662;DHT22;3367;48.714;8.994;2023-05-07T09:20:50;22.30;1.00
6662;DHT22;3367;48.714;8.994;2023-05-07T09:23:17;22.30;1.00
6662;DHT22;3367;48.714;8.994;2023-05-07T09:25:45;22.30;1.00
6662;DHT22;3367;48.714;8.994;2023-05-07T09:28:12;22.20;1.00
6662;DHT22;3367;48.714;8.994;2023-05-07T09:30:39;22.20;1.00
6662;DHT22;3367;48.714;8.994;2023-05-07T09:33:06;22.30;1.00
6662;DHT22;3367;48.714;8.994;2023-05-07T09:35:32;22.40;1.00
6662;DHT22;3367;48.714;8.994;2023-05-07T09:38:01;22.60;1.00
6662;DHT22;3367;48.714;8.994;2023-05-07T09:40:29;22.60;1.00
6662;DHT22;3367;48.714;8.994;2023-05-07T09:43:08;22.70;1.00
6662;DHT22;3367;48.714;8.994;2023-05-07T09:45:36;23.00;1.00
6662;DHT22;3367;48.714;8.994;2023-05-07T09:48:05;23.20;1.00
6662;DHT22;3367;48.714;8.994;2023-05-07T09:50:36;23.30;1.00
6662;DHT22;3367;48.714;8.994;2023-05-07T09:53:03;23.50;1.00
6662;DHT22;3367;48.714;8.994;2023-05-07T09:55:30;23.20;1.00
6662;DHT22;3367;48.714;8.994;2023-05-07T09:57:59;23.20;1.00
6662;DHT22;3367;48.714;8.994;2023-05-07T10:00:28;23.10;1.00
6662;DHT22;3367;48.714;8.994;2023-05-07T10:02:57;22.90;1.00
6662;DHT22;3367;48.714;8.994;2023-05-07T10:05:24;23.10;1.00
6662;DHT22;3367;48.714;8.994;2023-05-07T10:07:52;23.20;1.00
6662;DHT22;3367;48.714;8.994;2023-05-07T10:10:19;23.60;1.00
6662;DHT22;3367;48.714;8.994;2023-05-07T10:12:47;23.70;1.00
6662;DHT22;3367;48.714;8.994;2023-05-07T10:15:16;23.80;1.00
6662;DHT22;3367;48.714;8.994;2023-05-07T10:17:43;24.00;1.00
6662;DHT22;3367;48.714;8.994;2023-05-07T10:20:11;23.60;1.00
6662;DHT22;3367;48.714;8.994;2023-05-07T10:22:40;23.80;1.00
6662;DHT22;3367;48.714;8.994;2023-05-07T10:25:14;24.20;1.00
6662;DHT22;3367;48.714;8.994;2023-05-07T10:27:43;24.40;1.00
6662;DHT22;3367;48.714;8.994;2023-05-07T10:30:19;24.70;1.00
6662;DHT22;3367;48.714;8.994;2023-05-07T10:32:48;25.10;1.00
6662;DHT22;3367;48.714;8.994;2023-05-07T10:35:18;25.40;1.00
6662;DHT22;3367;48.714;8.994;2023-05-07T10:37:46;25.30;1.00
6662;DHT22;3367;48.714;8.994;2023-05-07T10:40:14;25.50;1.00
6662;DHT22;3367;48.714;8.994;2023-05-07T10:42:54;25.50;1.00
6662;DHT22;3367;48.714;8.994;2023-05-07T10:45:23;25.30;1.00
6662;DHT22;3367;48.714;8.994;2023-05-07T10:48:07;25.50;1.00
6662;DHT22;3367;48.714;8.994;2023-05-07T10:50:35;25.70;1.00
6662;DHT22;3367;48.714;8.994;2023-05-07T10:53:20;25.50;1.00
6662;DHT22;3367;48.714;8.994;2023-05-07T10:55:50;25.90;1.00
6662;DHT22;3367;48.714;8.994;2023-05-07T10:58:24;25.80;1.00
6662;DHT22;3367;48.714;8.994;2023-05-07T11:00:56;26.00;1.00
6662;DHT22;3367;48.714;8.994;2023-05-07T11:03:23;26.00;1.00
6662;DHT22;3367;48.714;8.994;2023-05-07T11:06:09;25.90;1.00
6662;DHT22;3367;48.714;8.994;2023-05-07T11:08:55;25.20;1.00
6662;DHT22;3367;48.714;8.994;2023-05-07T11:11:46;25.00;1.00
6662;DHT22;3367;48.714;8.994;2023-05-07T11:14:13;24.90;1.00
6662;DHT22;3367;48.714;8.994;2023-05-07T11:16:42;24.70;1.00
6662;DHT22;3367;48.714;8.994;2023-05-07T11:19:09;24.30;1.00
6662;DHT22;3367;48.714;8.994;2023-05-07T11:21:38;24.10;1.00
6662;DHT22;3367;48.714;8.994;2023-05-07T11:24:06;23.80;1.00
6662;DHT22;3367;48.714;8.994;2023-05-07T11:26:45;23.80;1.00
6662;DHT22;3367;48.714;8.994;2023-05-07T11:29:14;23.60;1.00
6662;DHT22;3367;48.714;8.994;2023-05-07T11:31:42;23.30;1.00
6662;DHT22;3367;48.714;8.994;2023-05-07T11:34:09;22.90;1.00
6662;DHT22;3367;48.714;8.994;2023-05-07T11:36:42;22.70;1.00
6662;DHT22;3367;48.714;8.994;2023-05-07T11:39:24;22.50;1.00
6662;DHT22;3367;48.714;8.994;2023-05-07T11:41:51;22.20;1.00
6662;DHT22;3367;48.714;8.994;2023-05-07T11:44:17;22.20;1.00
6662;DHT22;3367;48.714;8.994;2023-05-07T11:46:46;22.10;1.00
6662;DHT22;3367;48.714;8.994;2023-05-07T11:49:13;21.70;1.00
6662;DHT22;3367;48.714;8.994;2023-05-07T11:51:39;21.00;1.00
6662;DHT22;3367;48.714;8.994;2023-05-07T11:54:08;20.50;1.00
6662;DHT22;3367;48.714;8.994;2023-05-07T11:56:37;20.00;1.00
6662;DHT22;3367;48.714;8.994;2023-05-07T11:59:04;19.60;1.00
6662;DHT22;3367;48.714;8.994;2023-05-07T12:01:31;19.20;99.90
6662;DHT22;3367;48.714;8.994;2023-05-07T12:04:02;18.50;1.00
6662;DHT22;3367;48.714;8.994;2023-05-07T12:06:29;17.80;1.00
6662;DHT22;3367;48.714;8.994;2023-05-07T12:08:56;16.90;1.00
6662;DHT22;3367;48.714;8.994;2023-05-07T12:11:24;16.10;44.30
6662;DHT22;3367;48.714;8.994;2023-05-07T12:13:51;16.00;1.00
6662;DHT22;3367;48.714;8.994;2023-05-07T12:16:19;16.00;89.10
6662;DHT22;3367;48.714;8.994;2023-05-07T12:18:46;15.90;88.90
6662;DHT22;3367;48.714;8.994;2023-05-07T12:21:15;15.90;99.90
6662;DHT22;3367;48.714;8.994;2023-05-07T12:23:42;15.80;1.00
6662;DHT22;3367;48.714;8.994;2023-05-07T12:26:09;16.10;1.00
6662;DHT22;3367;48.714;8.994;2023-05-07T12:28:37;16.30;99.90
6662;DHT22;3367;48.714;8.994;2023-05-07T12:31:05;16.30;1.00
6662;DHT22;3367;48.714;8.994;2023-05-07T12:33:32;16.40;1.00
6662;DHT22;3367;48.714;8.994;2023-05-07T12:36:03;16.50;99.90
6662;DHT22;3367;48.714;8.994;2023-05-07T12:38:35;16.40;99.90
6662;DHT22;3367;48.714;8.994;2023-05-07T12:41:02;16.40;99.90
6662;DHT22;3367;48.714;8.994;2023-05-07T12:43:29;16.40;99.90
6662;DHT22;3367;48.714;8.994;2023-05-07T12:45:58;16.20;1.00
6662;DHT22;3367;48.714;8.994;2023-05-07T12:48:26;15.90;99.90
6662;DHT22;3367;48.714;8.994;2023-05-07T12:50:54;15.90;1.00
6662;DHT22;3367;48.714;8.994;2023-05-07T12:53:22;16.00;1.00
6662;DHT22;3367;48.714;8.994;2023-05-07T12:55:54;16.10;1.00
6662;DHT22;3367;48.714;8.994;2023-05-07T12:58:24;16.30;99.90
6662;DHT22;3367;48.714;8.994;2023-05-07T13:00:51;16.40;99.90
6662;DHT22;3367;48.714;8.994;2023-05-07T13:03:23;16.40;99.90
6662;DHT22;3367;48.714;8.994;2023-05-07T13:05:50;16.70;99.90
6662;DHT22;3367;48.714;8.994;2023-05-07T13:08:28;16.40;1.00
6662;DHT22;3367;48.714;8.994;2023-05-07T13:10:57;16.40;99.90
6662;DHT22;3367;48.714;8.994;2023-05-07T13:13:25;16.30;1.00
6662;DHT22;3367;48.714;8.994;2023-05-07T13:15:52;16.40;1.00
6662;DHT22;3367;48.714;8.994;2023-05-07T13:18:18;16.30;1.00
6662;DHT22;3367;48.714;8.994;2023-05-07T13:20:45;16.30;13.40
6662;DHT22;3367;48.714;8.994;2023-05-07T13:23:12;16.30;99.90
6662;DHT22;3367;48.714;8.994;2023-05-07T13:25:38;16.40;1.00
6662;DHT22;3367;48.714;8.994;2023-05-07T13:28:06;16.40;4.40
6662;DHT22;3367;48.714;8.994;2023-05-07T13:30:33;16.40;1.00
6662;DHT22;3367;48.714;8.994;2023-05-07T13:33:00;16.40;99.90
6662;DHT22;3367;48.714;8.994;2023-05-07T13:35:28;16.50;1.00
6662;DHT22;3367;48.714;8.994;2023-05-07T13:37:55;16.60;99.90
6662;DHT22;3367;48.714;8.994;2023-05-07T13:40:22;16.60;1.00
6662;DHT22;3367;48.714;8.994;2023-05-07T13:42:49;16.60;1.00
6662;DHT22;3367;48.714;8.994;2023-05-07T13:45:17;16.70;1.00
6662;DHT22;3367;48.714;8.994;2023-05-07T13:47:45;16.90;99.90
6662;DHT22;3367;48.714;8.994;2023-05-07T13:50:12;16.80;1.00
6662;DHT22;3367;48.714;8.994;2023-05-07T13:52:41;16.80;1.00
6662;DHT22;3367;48.714;8.994;2023-05-07T13:55:11;16.80;92.70
6662;DHT22;3367;48.714;8.994;2023-05-07T13:57:38;16.70;1.00
6662;DHT22;3367;48.714;8.994;2023-05-07T14:00:05;16.70;1.00
6662;DHT22;3367;48.714;8.994;2023-05-07T14:02:34;16.60;99.90
6662;DHT22;3367;48.714;8.994;2023-05-07T14:05:00;16.60;99.90
6662;DHT22;3367;48.714;8.994;2023-05-07T14:07:27;16.50;1.00
6662;DHT22;3367;48.714;8.994;2023-05-07T14:09:54;16.50;1.00
6662;DHT22;3367;48.714;8.994;2023-05-07T14:12:22;16.50;99.90
6662;DHT22;3367;48.714;8.994;2023-05-07T14:14:48;16.40;99.90
6662;DHT22;3367;48.714;8.994;2023-05-07T14:17:16;16.40;99.90
6662;DHT22;3367;48.714;8.994;2023-05-07T14:19:44;16.40;99.90
6662;DHT22;3367;48.714;8.994;2023-05-07T14:22:12;16.40;99.90
6662;DHT22;3367;48.714;8.994;2023-05-07T14:24:39;16.30;1.00
6662;DHT22;3367;48.714;8.994;2023-05-07T14:27:06;16.30;99.90
6662;DHT22;3367;48.714;8.994;2023-05-07T14:29:33;16.30;1.00
6662;DHT22;3367;48.714;8.994;2023-05-07T14:32:01;16.30;1.00
6662;DHT22;3367;48.714;8.994;2023-05-07T14:34:27;16.30;99.90
6662;DHT22;3367;48.714;8.994;2023-05-07T14:36:55;16.20;99.90
6662;DHT22;3367;48.714;8.994;2023-05-07T14:39:22;16.20;99.90
6662;DHT22;3367;48.714;8.994;2023-05-07T14:41:49;16.30;99.90
6662;DHT22;3367;48.714;8.994;2023-05-07T14:44:15;16.40;99.90
6662;DHT22;3367;48.714;8.994;2023-05-07T14:46:42;16.30;1.00
6662;DHT22;3367;48.714;8.994;2023-05-07T14:49:09;16.20;1.00
6662;DHT22;3367;48.714;8.994;2023-05-07T14:51:42;16.10;1.00
6662;DHT22;3367;48.714;8.994;2023-05-07T14:54:10;16.20;99.90
6662;DHT22;3367;48.714;8.994;2023-05-07T14:56:37;16.20;1.00
6662;DHT22;3367;48.714;8.994;2023-05-07T14:59:04;16.20;99.90
6662;DHT22;3367;48.714;8.994;2023-05-07T15:01:31;16.30;99.90
6662;DHT22;3367;48.714;8.994;2023-05-07T15:03:57;16.30;99.90
6662;DHT22;3367;48.714;8.994;2023-05-07T15:06:24;16.30;99.90
6662;DHT22;3367;48.714;8.994;2023-05-07T15:08:52;16.30;1.00
6662;DHT22;3367;48.714;8.994;2023-05-07T15:11:20;16.20;99.90
6662;DHT22;3367;48.714;8.994;2023-05-07T15:13:47;16.20;99.90
6662;DHT22;3367;48.714;8.994;2023-05-07T15:16:13;16.20;99.90
6662;DHT22;3367;48.714;8.994;2023-05-07T15:18:40;16.20;99.90
6662;DHT22;3367;48.714;8.994;2023-05-07T15:21:07;16.30;1.00
6662;DHT22;3367;48.714;8.994;2023-05-07T15:23:34;16.50;1.00
6662;DHT22;3367;48.714;8.994;2023-05-07T15:26:00;16.40;1.00
6662;DHT22;3367;48.714;8.994;2023-05-07T15:28:29;16.40;1.00
6662;DHT22;3367;48.714;8.994;2023-05-07T15:30:56;16.40;1.00
6662;DHT22;3367;48.714;8.994;2023-05-07T15:33:23;16.70;1.00
6662;DHT22;3367;48.714;8.994;2023-05-07T15:35:50;16.70;1.00
6662;DHT22;3367;48.714;8.994;2023-05-07T15:38:17;16.80;18.30
6662;DHT22;3367;48.714;8.994;2023-05-07T15:40:43;16.90;1.00
6662;DHT22;3367;48.714;8.994;2023-05-07T15:43:11;17.00;1.00
6662;DHT22;3367;48.714;8.994;2023-05-07T15:45:41;17.10;99.90
6662;DHT22;3367;48.714;8.994;2023-05-07T15:48:08;17.10;1.00
6662;DHT22;3367;48.714;8.994;2023-05-07T15:50:35;17.10;1.00
6662;DHT22;3367;48.714;8.994;2023-05-07T15:53:02;17.00;1.00
6662;DHT22;3367;48.714;8.994;2023-05-07T15:55:29;17.10;1.00
6662;DHT22;3367;48.714;8.994;2023-05-07T15:57:56;17.20;99.90
6662;DHT22;3367;48.714;8.994;2023-05-07T16:00:25;17.10;1.00
6662;DHT22;3367;48.714;8.994;2023-05-07T16:02:54;17.20;99.90
6662;DHT22;3367;48.714;8.994;2023-05-07T16:05:20;17.20;1.00
6662;DHT22;3367;48.714;8.994;2023-05-07T16:07:47;17.20;99.90
6662;DHT22;3367;48.714;8.994;2023-05-07T16:10:14;17.20;99.90
6662;DHT22;3367;48.714;8.994;2023-05-07T16:12:41;17.20;99.90
6662;DHT22;3367;48.714;8.994;2023-05-07T16:15:08;17.30;78.00